sensor_id;sensor_type;location;lat;lon;timestamp;pressure;altitude;pressure_sealevel;temperature;humidity
63700;BME280;49845;47.130;142.766;2024-03-06T00:00:50;100583.91;;;-3.18;69.68
63700;BME280;49845;47.130;142.766;2024-03-06T00:03:23;100587.66;;;-3.10;69.10
63700;BME280;49845;47.130;142.766;2024-03-06T00:05:56;100587.66;;;-2.90;68.71
63700;BME280;49845;47.130;142.766;2024-03-06T00:08:29;100582.19;;;-2.59;68.79
63700;BME280;49845;47.130;142.766;2024-03-06T00:11:02;100580.91;;;-2.48;68.64
63700;BME280;49845;47.130;142.766;2024-03-06T00:13:36;100581.38;;;-2.37;68.61
63700;BME280;49845;47.130;142.766;2024-03-06T00:16:10;100581.53;;;-2.32;68.25
63700;BME280;49845;47.130;142.766;2024-03-06T00:18:46;100581.63;;;-2.31;68.59
63700;BME280;49845;47.130;142.766;2024-03-06T00:21:19;100570.50;;;-2.31;69.08
63700;BME280;49845;47.130;142.766;2024-03-06T00:23:52;100578.56;;;-2.43;69.29
63700;BME280;49845;47.130;142.766;2024-03-06T00:26:25;100576.06;;;-2.21;69.95
63700;BME280;49845;47.130;142.766;2024-03-06T00:29:00;100574.06;;;-2.28;69.78
63700;BME280;49845;47.130;142.766;2024-03-06T00:31:33;100566.56;;;-2.23;70.00
63700;BME280;49845;47.130;142.766;2024-03-06T00:34:06;100567.72;;;-2.15;70.11
63700;BME280;49845;47.130;142.766;2024-03-06T00:36:39;100560.25;;;-1.88;70.53
63700;BME280;49845;47.130;142.766;2024-03-06T00:39:11;100559.00;;;-1.77;69.91
63700;BME280;49845;47.130;142.766;2024-03-06T00:41:45;100558.41;;;-1.92;69.26
63700;BME280;49845;47.130;142.766;2024-03-06T00:44:19;100561.53;;;-1.99;69.11
63700;BME280;49845;47.130;142.766;2024-03-06T00:46:52;100558.91;;;-2.01;69.47
63700;BME280;49845;47.130;142.766;2024-03-06T00:49:24;100511.56;;;-2.33;69.08
63700;BME280;49845;47.130;142.766;2024-03-06T00:51:56;100553.09;;;-1.97;69.27
63700;BME280;49845;47.130;142.766;2024-03-06T00:54:29;100542.31;;;-1.88;68.85
63700;BME280;49845;47.130;142.766;2024-03-06T00:57:03;100541.25;;;-1.72;69.03
63700;BME280;49845;47.130;142.766;2024-03-06T00:59:37;100543.59;;;-1.54;68.83
63700;BME280;49845;47.130;142.766;2024-03-06T01:02:10;100541.94;;;-1.29;68.72
63700;BME280;49845;47.130;142.766;2024-03-06T01:04:43;100532.84;;;-0.96;68.54
63700;BME280;49845;47.130;142.766;2024-03-06T01:07:16;100535.78;;;-0.85;67.64
63700;BME280;49845;47.130;142.766;2024-03-06T01:09:49;100540.25;;;-0.79;67.11
63700;BME280;49845;47.130;142.766;2024-03-06T01:12:22;100541.66;;;-0.88;66.73
63700;BME280;49845;47.130;142.766;2024-03-06T01:14:57;100538.31;;;-0.87;66.74
63700;BME280;49845;47.130;142.766;2024-03-06T01:17:29;100539.84;;;-0.92;67.19
63700;BME280;49845;47.130;142.766;2024-03-06T01:20:02;100535.78;;;-0.85;67.33
63700;BME280;49845;47.130;142.766;2024-03-06T01:22:36;100539.41;;;-0.53;67.13
63700;BME280;49845;47.130;142.766;2024-03-06T01:25:09;100534.50;;;-0.47;66.05
63700;BME280;49845;47.130;142.766;2024-03-06T01:27:42;100537.38;;;-0.63;66.23
63700;BME280;49845;47.130;142.766;2024-03-06T01:30:16;100522.31;;;-0.79;66.48
63700;BME280;49845;47.130;142.766;2024-03-06T01:32:49;100517.25;;;-0.24;66.74
63700;BME280;49845;47.130;142.766;2024-03-06T01:35:22;100519.78;;;0.32;66.18
63700;BME280;49845;47.130;142.766;2024-03-06T01:37:55;100527.13;;;0.49;63.81
63700;BME280;49845;47.130;142.766;2024-03-06T01:40:28;100518.41;;;0.43;63.66
63700;BME280;49845;47.130;142.766;2024-03-06T01:43:01;100518.66;;;0.53;63.69
63700;BME280;49845;47.130;142.766;2024-03-06T01:45:36;100513.06;;;0.37;62.09
63700;BME280;49845;47.130;142.766;2024-03-06T01:48:09;100508.81;;;0.08;61.99
63700;BME280;49845;47.130;142.766;2024-03-06T01:50:43;100509.88;;;-0.13;62.20
63700;BME280;49845;47.130;142.766;2024-03-06T01:53:16;100512.31;;;-0.17;62.01
63700;BME280;49845;47.130;142.766;2024-03-06T01:55:50;100508.38;;;-0.33;62.00
63700;BME280;49845;47.130;142.766;2024-03-06T01:58:24;100465.81;;;-0.54;61.75
63700;BME280;49845;47.130;142.766;2024-03-06T02:00:58;100468.41;;;-0.25;62.26
63700;BME280;49845;47.130;142.766;2024-03-06T02:03:32;100405.75;;;-0.59;62.05
63700;BME280;49845;47.130;142.766;2024-03-06T02:06:06;100503.84;;;-0.15;62.01
63700;BME280;49845;47.130;142.766;2024-03-06T02:08:39;100499.78;;;-0.07;62.38
63700;BME280;49845;47.130;142.766;2024-03-06T02:11:12;100497.00;;;-0.14;62.92
63700;BME280;49845;47.130;142.766;2024-03-06T02:13:46;100497.00;;;-0.14;63.05
63700;BME280;49845;47.130;142.766;2024-03-06T02:16:21;100501.28;;;-0.15;61.89
63700;BME280;49845;47.130;142.766;2024-03-06T02:18:54;100499.59;;;-0.13;61.94
63700;BME280;49845;47.130;142.766;2024-03-06T02:21:29;100495.97;;;0.09;63.18
63700;BME280;49845;47.130;142.766;2024-03-06T02:24:02;100502.09;;;0.73;63.19
63700;BME280;49845;47.130;142.766;2024-03-06T02:26:35;100479.75;;;1.39;62.62
63700;BME280;49845;47.130;142.766;2024-03-06T02:29:09;100492.53;;;1.36;60.44
63700;BME280;49845;47.130;142.766;2024-03-06T02:31:43;100490.69;;;1.30;60.52
63700;BME280;49845;47.130;142.766;2024-03-06T02:34:15;100490.03;;;1.39;60.89
63700;BME280;49845;47.130;142.766;2024-03-06T02:36:50;100487.06;;;1.58;60.25
63700;BME280;49845;47.130;142.766;2024-03-06T02:39:22;100476.38;;;1.78;59.57
63700;BME280;49845;47.130;142.766;2024-03-06T02:41:55;100476.44;;;2.22;59.54
63700;BME280;49845;47.130;142.766;2024-03-06T02:44:28;100482.25;;;2.52;59.05
63700;BME280;49845;47.130;142.766;2024-03-06T02:47:01;100490.69;;;2.45;57.95
63700;BME280;49845;47.130;142.766;2024-03-06T02:49:34;100493.47;;;2.13;57.76
63700;BME280;49845;47.130;142.766;2024-03-06T02:52:08;100488.03;;;2.01;58.87
63700;BME280;49845;47.130;142.766;2024-03-06T02:54:42;100484.75;;;1.69;58.77
63700;BME280;49845;47.130;142.766;2024-03-06T02:57:15;100489.25;;;1.78;58.74
63700;BME280;49845;47.130;142.766;2024-03-06T02:59:48;100471.13;;;2.14;58.60
63700;BME280;49845;47.130;142.766;2024-03-06T03:02:21;100478.13;;;2.20;59.23
63700;BME280;49845;47.130;142.766;2024-03-06T03:04:55;100474.31;;;2.43;58.76
63700;BME280;49845;47.130;142.766;2024-03-06T03:07:29;100470.22;;;2.10;58.64
63700;BME280;49845;47.130;142.766;2024-03-06T03:10:02;100465.09;;;1.72;58.83
63700;BME280;49845;47.130;142.766;2024-03-06T03:12:37;100453.88;;;1.33;59.18
63700;BME280;49845;47.130;142.766;2024-03-06T03:15:11;100456.09;;;1.19;60.26
63700;BME280;49845;47.130;142.766;2024-03-06T03:17:44;100445.00;;;1.21;59.81
63700;BME280;49845;47.130;142.766;2024-03-06T03:20:17;100441.66;;;1.25;59.10
63700;BME280;49845;47.130;142.766;2024-03-06T03:22:52;100420.69;;;0.75;59.46
63700;BME280;49845;47.130;142.766;2024-03-06T03:25:26;100438.03;;;0.51;59.26
63700;BME280;49845;47.130;142.766;2024-03-06T03:27:58;100437.19;;;0.52;59.61
63700;BME280;49845;47.130;142.766;2024-03-06T03:30:32;100422.84;;;0.60;59.98
63700;BME280;49845;47.130;142.766;2024-03-06T03:33:05;100417.47;;;0.84;59.55
63700;BME280;49845;47.130;142.766;2024-03-06T03:35:38;100413.56;;;1.00;59.27
63700;BME280;49845;47.130;142.766;2024-03-06T03:38:12;100415.16;;;0.95;58.52
63700;BME280;49845;47.130;142.766;2024-03-06T03:40:45;100411.59;;;0.90;58.24
63700;BME280;49845;47.130;142.766;2024-03-06T03:43:17;100405.09;;;1.04;58.09
63700;BME280;49845;47.130;142.766;2024-03-06T03:45:51;100399.31;;;1.13;57.65
63700;BME280;49845;47.130;142.766;2024-03-06T03:48:24;100414.66;;;1.10;57.92
63700;BME280;49845;47.130;142.766;2024-03-06T03:50:57;100401.75;;;1.43;56.30
63700;BME280;49845;47.130;142.766;2024-03-06T03:53:31;100395.91;;;1.50;56.39
63700;BME280;49845;47.130;142.766;2024-03-06T03:56:05;100392.81;;;1.66;55.57
63700;BME280;49845;47.130;142.766;2024-03-06T03:58:39;100397.47;;;1.84;54.97
63700;BME280;49845;47.130;142.766;2024-03-06T04:01:12;100391.91;;;2.05;54.40
63700;BME280;49845;47.130;142.766;2024-03-06T04:03:44;100395.41;;;2.07;53.37
63700;BME280;49845;47.130;142.766;2024-03-06T04:06:18;100386.63;;;1.99;53.41
63700;BME280;49845;47.130;142.766;2024-03-06T04:08:52;100391.97;;;2.08;53.08
63700;BME280;49845;47.130;142.766;2024-03-06T04:11:25;100395.47;;;2.10;53.60
63700;BME280;49845;47.130;142.766;2024-03-06T04:13:59;100393.53;;;2.00;53.73
63700;BME280;49845;47.130;142.766;2024-03-06T04:16:31;100379.94;;;2.07;53.87
63700;BME280;49845;47.130;142.766;2024-03-06T04:19:03;100394.94;;;1.86;53.10
63700;BME280;49845;47.130;142.766;2024-03-06T04:21:41;100280.84;;;1.08;52.79
63700;BME280;49845;47.130;142.766;2024-03-06T04:24:16;100392.81;;;1.66;50.99
63700;BME280;49845;47.130;142.766;2024-03-06T04:26:49;100391.56;;;1.47;49.24
63700;BME280;49845;47.130;142.766;2024-03-06T04:29:21;100390.59;;;1.44;48.68
63700;BME280;49845;47.130;142.766;2024-03-06T04:31:54;100381.56;;;1.23;47.62
63700;BME280;49845;47.130;142.766;2024-03-06T04:34:27;100392.25;;;1.42;49.35
63700;BME280;49845;47.130;142.766;2024-03-06T04:37:01;100393.06;;;1.79;50.35
63700;BME280;49845;47.130;142.766;2024-03-06T04:39:35;100389.78;;;2.28;50.61
63700;BME280;49845;47.130;142.766;2024-03-06T04:42:08;100385.94;;;2.53;49.00
63700;BME280;49845;47.130;142.766;2024-03-06T04:44:41;100399.53;;;2.43;48.90
63700;BME280;49845;47.130;142.766;2024-03-06T04:47:14;100405.66;;;0.92;50.88
63700;BME280;49845;47.130;142.766;2024-03-06T04:49:47;100415.53;;;0.10;54.12
63700;BME280;49845;47.130;142.766;2024-03-06T04:52:20;100395.66;;;-0.53;55.57
63700;BME280;49845;47.130;142.766;2024-03-06T04:54:54;100412.16;;;-0.73;57.37
63700;BME280;49845;47.130;142.766;2024-03-06T04:57:27;100414.41;;;-0.82;58.42
63700;BME280;49845;47.130;142.766;2024-03-06T05:00:00;100412.75;;;-0.82;58.53
63700;BME280;49845;47.130;142.766;2024-03-06T05:02:36;100408.97;;;-0.66;57.95
63700;BME280;49845;47.130;142.766;2024-03-06T05:05:24;100410.22;;;-0.80;56.46
63700;BME280;49845;47.130;142.766;2024-03-06T05:08:13;100405.56;;;-0.65;56.58
63700;BME280;49845;47.130;142.766;2024-03-06T05:11:04;100406.72;;;-0.82;54.77
63700;BME280;49845;47.130;142.766;2024-03-06T05:13:54;100398.63;;;-1.22;55.39
63700;BME280;49845;47.130;142.766;2024-03-06T05:16:43;100410.00;;;-1.14;55.42
63700;BME280;49845;47.130;142.766;2024-03-06T05:19:31;100360.72;;;-1.56;54.55
63700;BME280;49845;47.130;142.766;2024-03-06T05:22:20;100391.03;;;-1.44;55.92
63700;BME280;49845;47.130;142.766;2024-03-06T05:25:08;100399.59;;;-1.44;55.38
63700;BME280;49845;47.130;142.766;2024-03-06T05:27:57;100403.53;;;-1.54;55.90
63700;BME280;49845;47.130;142.766;2024-03-06T05:30:44;100404.28;;;-1.56;56.79
63700;BME280;49845;47.130;142.766;2024-03-06T05:33:31;100401.69;;;-1.82;56.67
63700;BME280;49845;47.130;142.766;2024-03-06T05:36:18;100402.63;;;-2.02;57.65
63700;BME280;49845;47.130;142.766;2024-03-06T05:39:05;100410.50;;;-2.22;57.57
63700;BME280;49845;47.130;142.766;2024-03-06T05:42:00;100412.34;;;-2.40;58.37
63700;BME280;49845;47.130;142.766;2024-03-06T05:44:51;100406.41;;;-2.39;59.85
63700;BME280;49845;47.130;142.766;2024-03-06T05:47:39;100417.88;;;-2.73;63.31
63700;BME280;49845;47.130;142.766;2024-03-06T05:50:26;100419.72;;;-2.91;65.02
63700;BME280;49845;47.130;142.766;2024-03-06T05:53:14;100427.69;;;-3.05;64.41
63700;BME280;49845;47.130;142.766;2024-03-06T05:56:01;100415.41;;;-2.92;65.27
63700;BME280;49845;47.130;142.766;2024-03-06T05:58:48;100422.22;;;-2.72;63.92
63700;BME280;49845;47.130;142.766;2024-03-06T06:01:20;100422.44;;;-2.66;64.07
63700;BME280;49845;47.130;142.766;2024-03-06T06:03:50;100420.94;;;-2.61;63.76
63700;BME280;49845;47.130;142.766;2024-03-06T06:06:21;100422.91;;;-2.53;63.36
63700;BME280;49845;47.130;142.766;2024-03-06T06:08:51;100427.94;;;-2.56;62.44
63700;BME280;49845;47.130;142.766;2024-03-06T06:11:22;100425.34;;;-2.79;63.22
63700;BME280;49845;47.130;142.766;2024-03-06T06:13:53;100426.22;;;-2.99;63.58
63700;BME280;49845;47.130;142.766;2024-03-06T06:16:25;100426.94;;;-3.23;64.07
63700;BME280;49845;47.130;142.766;2024-03-06T06:18:55;100429.97;;;-3.72;65.26
63700;BME280;49845;47.130;142.766;2024-03-06T06:21:26;100429.69;;;-4.35;66.62
63700;BME280;49845;47.130;142.766;2024-03-06T06:23:56;100423.91;;;-4.68;68.88
63700;BME280;49845;47.130;142.766;2024-03-06T06:26:27;100426.16;;;-4.74;69.72
63700;BME280;49845;47.130;142.766;2024-03-06T06:28:57;100436.88;;;-4.82;69.25
63700;BME280;49845;47.130;142.766;2024-03-06T06:31:29;100441.06;;;-5.00;69.34
63700;BME280;49845;47.130;142.766;2024-03-06T06:34:00;100437.16;;;-5.11;69.45
63700;BME280;49845;47.130;142.766;2024-03-06T06:36:31;100433.25;;;-5.21;69.63
63700;BME280;49845;47.130;142.766;2024-03-06T06:39:01;100430.41;;;-5.27;70.37
63700;BME280;49845;47.130;142.766;2024-03-06T06:41:34;100438.72;;;-5.31;70.64
63700;BME280;49845;47.130;142.766;2024-03-06T06:44:05;100440.69;;;-5.42;71.31
63700;BME280;49845;47.130;142.766;2024-03-06T06:46:38;100433.38;;;-5.52;71.45
63700;BME280;49845;47.130;142.766;2024-03-06T06:49:08;100436.81;;;-5.52;71.99
63700;BME280;49845;47.130;142.766;2024-03-06T06:51:39;100443.75;;;-5.66;72.23
63700;BME280;49845;47.130;142.766;2024-03-06T06:54:09;100446.34;;;-5.98;72.93
63700;BME280;49845;47.130;142.766;2024-03-06T06:56:40;100451.84;;;-6.22;73.17
63700;BME280;49845;47.130;142.766;2024-03-06T06:59:10;100459.31;;;-6.41;73.78
63700;BME280;49845;47.130;142.766;2024-03-06T07:01:43;100460.53;;;-6.49;74.14
63700;BME280;49845;47.130;142.766;2024-03-06T07:04:14;100467.91;;;-6.54;73.87
63700;BME280;49845;47.130;142.766;2024-03-06T07:06:48;100462.31;;;-6.63;74.23
63700;BME280;49845;47.130;142.766;2024-03-06T07:09:19;100451.13;;;-6.82;74.44
63700;BME280;49845;47.130;142.766;2024-03-06T07:11:49;100463.22;;;-6.92;75.43
63700;BME280;49845;47.130;142.766;2024-03-06T07:14:20;100466.72;;;-7.20;76.68
63700;BME280;49845;47.130;142.766;2024-03-06T07:16:52;100474.84;;;-7.41;76.87
63700;BME280;49845;47.130;142.766;2024-03-06T07:19:23;100467.72;;;-7.46;77.65
63700;BME280;49845;47.130;142.766;2024-03-06T07:21:53;100471.94;;;-7.47;78.12
63700;BME280;49845;47.130;142.766;2024-03-06T07:24:24;100475.47;;;-7.45;78.31
63700;BME280;49845;47.130;142.766;2024-03-06T07:26:54;100479.97;;;-7.54;78.11
63700;BME280;49845;47.130;142.766;2024-03-06T07:29:25;100480.19;;;-7.51;78.56
63700;BME280;49845;47.130;142.766;2024-03-06T07:31:57;100489.47;;;-7.37;78.43
63700;BME280;49845;47.130;142.766;2024-03-06T07:34:28;100488.69;;;-7.35;78.06
63700;BME280;49845;47.130;142.766;2024-03-06T07:36:59;100489.13;;;-7.43;77.50
63700;BME280;49845;47.130;142.766;2024-03-06T07:39:32;100490.69;;;-7.45;77.21
63700;BME280;49845;47.130;142.766;2024-03-06T07:42:04;100499.09;;;-7.46;77.35
63700;BME280;49845;47.130;142.766;2024-03-06T07:44:34;100511.00;;;-7.45;77.37
63700;BME280;49845;47.130;142.766;2024-03-06T07:47:06;100498.53;;;-7.55;77.51
63700;BME280;49845;47.130;142.766;2024-03-06T07:49:37;100507.25;;;-7.65;77.72
63700;BME280;49845;47.130;142.766;2024-03-06T07:52:07;100509.53;;;-7.69;78.05
63700;BME280;49845;47.130;142.766;2024-03-06T07:54:38;100504.78;;;-7.78;78.71
63700;BME280;49845;47.130;142.766;2024-03-06T07:57:09;100506.09;;;-7.98;79.02
63700;BME280;49845;47.130;142.766;2024-03-06T07:59:39;100516.00;;;-8.16;79.97
63700;BME280;49845;47.130;142.766;2024-03-06T08:02:12;100523.59;;;-8.29;80.73
63700;BME280;49845;47.130;142.766;2024-03-06T08:04:42;100525.13;;;-8.46;80.65
63700;BME280;49845;47.130;142.766;2024-03-06T08:07:12;100531.16;;;-8.57;80.90
63700;BME280;49845;47.130;142.766;2024-03-06T08:09:43;100525.47;;;-8.66;81.28
63700;BME280;49845;47.130;142.766;2024-03-06T08:12:13;100528.63;;;-8.71;81.50
63700;BME280;49845;47.130;142.766;2024-03-06T08:14:44;100536.22;;;-8.71;82.08
63700;BME280;49845;47.130;142.766;2024-03-06T08:17:16;100536.59;;;-8.78;82.30
63700;BME280;49845;47.130;142.766;2024-03-06T08:19:47;100538.13;;;-8.80;82.92
63700;BME280;49845;47.130;142.766;2024-03-06T08:22:17;100538.50;;;-8.74;83.11
63700;BME280;49845;47.130;142.766;2024-03-06T08:24:47;100543.00;;;-8.83;83.00
63700;BME280;49845;47.130;142.766;2024-03-06T08:27:18;100547.16;;;-8.97;83.05
63700;BME280;49845;47.130;142.766;2024-03-06T08:29:49;100536.13;;;-9.10;84.14
63700;BME280;49845;47.130;142.766;2024-03-06T08:32:23;100546.00;;;-9.27;83.97
63700;BME280;49845;47.130;142.766;2024-03-06T08:34:53;100545.09;;;-9.41;84.23
63700;BME280;49845;47.130;142.766;2024-03-06T08:37:24;100545.75;;;-9.43;84.69
63700;BME280;49845;47.130;142.766;2024-03-06T08:39:54;100543.78;;;-9.47;84.60
63700;BME280;49845;47.130;142.766;2024-03-06T08:42:25;100539.88;;;-9.56;84.38
63700;BME280;49845;47.130;142.766;2024-03-06T08:44:55;100555.03;;;-9.56;84.92
63700;BME280;49845;47.130;142.766;2024-03-06T08:47:28;100550.53;;;-9.60;85.00
63700;BME280;49845;47.130;142.766;2024-03-06T08:49:58;100562.78;;;-9.66;86.87
63700;BME280;49845;47.130;142.766;2024-03-06T08:52:32;100567.41;;;-9.72;87.89
63700;BME280;49845;47.130;142.766;2024-03-06T08:55:03;100547.25;;;-9.95;88.03
63700;BME280;49845;47.130;142.766;2024-03-06T08:57:34;100524.19;;;-10.12;88.18
63700;BME280;49845;47.130;142.766;2024-03-06T09:00:06;100573.94;;;-9.87;89.03
63700;BME280;49845;47.130;142.766;2024-03-06T09:02:41;100581.50;;;-9.87;89.40
63700;BME280;49845;47.130;142.766;2024-03-06T09:05:12;100582.84;;;-9.92;89.17
63700;BME280;49845;47.130;142.766;2024-03-06T09:07:42;100581.63;;;-9.98;89.30
63700;BME280;49845;47.130;142.766;2024-03-06T09:10:13;100585.28;;;-10.06;88.98
63700;BME280;49845;47.130;142.766;2024-03-06T09:12:44;100585.03;;;-10.09;89.32
63700;BME280;49845;47.130;142.766;2024-03-06T09:15:15;100547.75;;;-10.36;89.23
63700;BME280;49845;47.130;142.766;2024-03-06T09:17:48;100517.47;;;-10.60;89.34
63700;BME280;49845;47.130;142.766;2024-03-06T09:20:19;100581.78;;;-10.20;89.40
63700;BME280;49845;47.130;142.766;2024-03-06T09:22:52;100583.31;;;-10.22;89.73
63700;BME280;49845;47.130;142.766;2024-03-06T09:25:25;100592.31;;;-10.25;89.31
63700;BME280;49845;47.130;142.766;2024-03-06T09:27:57;100599.28;;;-10.34;88.84
63700;BME280;49845;47.130;142.766;2024-03-06T09:30:28;100596.31;;;-10.40;88.66
63700;BME280;49845;47.130;142.766;2024-03-06T09:33:00;100594.97;;;-10.59;88.34
63700;BME280;49845;47.130;142.766;2024-03-06T09:35:31;100592.53;;;-10.69;88.66
63700;BME280;49845;47.130;142.766;2024-03-06T09:38:01;100587.47;;;-10.93;88.38
63700;BME280;49845;47.130;142.766;2024-03-06T09:40:32;100597.06;;;-10.99;88.56
63700;BME280;49845;47.130;142.766;2024-03-06T09:43:03;100597.84;;;-11.00;89.74
63700;BME280;49845;47.130;142.766;2024-03-06T09:45:35;100586.06;;;-11.11;90.18
63700;BME280;49845;47.130;142.766;2024-03-06T09:48:09;100601.13;;;-11.35;89.37
63700;BME280;49845;47.130;142.766;2024-03-06T09:50:43;100597.25;;;-11.63;89.56
63700;BME280;49845;47.130;142.766;2024-03-06T09:53:16;100585.75;;;-11.82;90.10
63700;BME280;49845;47.130;142.766;2024-03-06T09:55:47;100601.66;;;-11.83;90.40
63700;BME280;49845;47.130;142.766;2024-03-06T09:58:18;100603.19;;;-11.85;90.97
63700;BME280;49845;47.130;142.766;2024-03-06T10:00:50;100609.91;;;-11.74;91.01
63700;BME280;49845;47.130;142.766;2024-03-06T10:03:23;100611.44;;;-11.76;91.77
63700;BME280;49845;47.130;142.766;2024-03-06T10:05:54;100606.75;;;-11.93;91.45
63700;BME280;49845;47.130;142.766;2024-03-06T10:08:26;100612.50;;;-12.16;90.80
63700;BME280;49845;47.130;142.766;2024-03-06T10:10:57;100615.22;;;-12.35;90.82
63700;BME280;49845;47.130;142.766;2024-03-06T10:13:27;100607.41;;;-12.48;90.99
63700;BME280;49845;47.130;142.766;2024-03-06T10:16:00;100614.75;;;-12.62;90.72
63700;BME280;49845;47.130;142.766;2024-03-06T10:18:32;100616.75;;;-12.78;90.72
63700;BME280;49845;47.130;142.766;2024-03-06T10:21:03;100621.19;;;-12.96;90.26
63700;BME280;49845;47.130;142.766;2024-03-06T10:23:34;100607.19;;;-13.13;90.64
63700;BME280;49845;47.130;142.766;2024-03-06T10:26:07;100593.84;;;-13.53;90.93
63700;BME280;49845;47.130;142.766;2024-03-06T10:28:38;100614.75;;;-13.33;91.32
63700;BME280;49845;47.130;142.766;2024-03-06T10:31:14;100620.03;;;-13.40;91.72
63700;BME280;49845;47.130;142.766;2024-03-06T10:33:46;100614.75;;;-13.43;92.13
63700;BME280;49845;47.130;142.766;2024-03-06T10:36:17;100606.16;;;-13.66;91.59
63700;BME280;49845;47.130;142.766;2024-03-06T10:38:49;100624.50;;;-13.67;91.58
63700;BME280;49845;47.130;142.766;2024-03-06T10:41:23;100627.50;;;-13.71;91.77
63700;BME280;49845;47.130;142.766;2024-03-06T10:43:55;100628.75;;;-13.76;90.96
63700;BME280;49845;47.130;142.766;2024-03-06T10:46:27;100626.44;;;-13.83;90.77
63700;BME280;49845;47.130;142.766;2024-03-06T10:49:02;100625.22;;;-13.78;91.12
63700;BME280;49845;47.130;142.766;2024-03-06T10:51:33;100630.22;;;-13.78;90.98
63700;BME280;49845;47.130;142.766;2024-03-06T10:54:04;100630.47;;;-13.75;91.32
63700;BME280;49845;47.130;142.766;2024-03-06T10:56:39;100623.00;;;-13.65;91.83
63700;BME280;49845;47.130;142.766;2024-03-06T10:59:12;100558.34;;;-13.97;91.93
63700;BME280;49845;47.130;142.766;2024-03-06T11:01:45;100630.56;;;-13.55;91.88
63700;BME280;49845;47.130;142.766;2024-03-06T11:04:18;100635.69;;;-13.63;91.76
63700;BME280;49845;47.130;142.766;2024-03-06T11:06:49;100625.13;;;-13.70;91.44
63700;BME280;49845;47.130;142.766;2024-03-06T11:09:20;100631.72;;;-13.80;91.62
63700;BME280;49845;47.130;142.766;2024-03-06T11:11:51;100578.63;;;-14.14;91.62
63700;BME280;49845;47.130;142.766;2024-03-06T11:14:22;100641.63;;;-13.92;91.19
63700;BME280;49845;47.130;142.766;2024-03-06T11:17:00;100630.66;;;-13.93;91.35
63700;BME280;49845;47.130;142.766;2024-03-06T11:20:08;100636.84;;;-13.89;91.48
63700;BME280;49845;47.130;142.766;2024-03-06T11:25:59;100615.81;;;-14.10;90.81
63700;BME280;49845;47.130;142.766;2024-03-06T11:28:32;100637.09;;;-14.15;90.17
63700;BME280;49845;47.130;142.766;2024-03-06T11:31:04;100623.56;;;-14.17;90.43
63700;BME280;49845;47.130;142.766;2024-03-06T11:33:38;100624.78;;;-14.22;89.82
63700;BME280;49845;47.130;142.766;2024-03-06T11:36:19;100619.91;;;-14.40;89.86
63700;BME280;49845;47.130;142.766;2024-03-06T11:38:56;100622.88;;;-14.25;89.75
63700;BME280;49845;47.130;142.766;2024-03-06T11:41:29;100628.44;;;-14.38;89.15
63700;BME280;49845;47.130;142.766;2024-03-06T11:44:00;100633.91;;;-14.52;89.31
63700;BME280;49845;47.130;142.766;2024-03-06T11:46:42;100625.88;;;-14.48;89.69
63700;BME280;49845;47.130;142.766;2024-03-06T11:49:16;100629.41;;;-14.46;89.83
63700;BME280;49845;47.130;142.766;2024-03-06T11:51:51;100631.19;;;-14.45;89.89
63700;BME280;49845;47.130;142.766;2024-03-06T11:54:22;100631.19;;;-14.45;90.10
63700;BME280;49845;47.130;142.766;2024-03-06T11:56:56;100622.53;;;-14.38;90.11
63700;BME280;49845;47.130;142.766;2024-03-06T11:59:27;100623.16;;;-14.41;90.01
63700;BME280;49845;47.130;142.766;2024-03-06T12:01:59;100614.78;;;-14.60;89.67
63700;BME280;49845;47.130;142.766;2024-03-06T12:04:32;100621.31;;;-14.62;89.98
63700;BME280;49845;47.130;142.766;2024-03-06T12:07:06;100626.19;;;-14.16;91.02
63700;BME280;49845;47.130;142.766;2024-03-06T12:09:39;100635.25;;;-13.78;91.24
63700;BME280;49845;47.130;142.766;2024-03-06T12:12:11;100566.59;;;-13.98;90.54
63700;BME280;49845;47.130;142.766;2024-03-06T12:14:41;100634.81;;;-13.64;89.51
63700;BME280;49845;47.130;142.766;2024-03-06T12:17:13;100622.91;;;-13.85;87.76
63700;BME280;49845;47.130;142.766;2024-03-06T12:19:44;100635.16;;;-13.80;86.54
63700;BME280;49845;47.130;142.766;2024-03-06T12:22:16;100631.22;;;-13.86;85.34
63700;BME280;49845;47.130;142.766;2024-03-06T12:24:58;100636.75;;;-13.80;84.89
63700;BME280;49845;47.130;142.766;2024-03-06T12:27:29;100644.06;;;-13.73;84.28
63700;BME280;49845;47.130;142.766;2024-03-06T12:30:09;100647.72;;;-13.80;83.34
63700;BME280;49845;47.130;142.766;2024-03-06T12:32:41;100643.53;;;-13.89;82.74
63700;BME280;49845;47.130;142.766;2024-03-06T12:35:12;100648.44;;;-14.10;81.88
63700;BME280;49845;47.130;142.766;2024-03-06T12:37:44;100644.91;;;-14.12;82.19
63700;BME280;49845;47.130;142.766;2024-03-06T12:40:14;100640.63;;;-14.13;82.32
63700;BME280;49845;47.130;142.766;2024-03-06T12:42:45;100640.63;;;-14.13;82.29
63700;BME280;49845;47.130;142.766;2024-03-06T12:45:16;100645.22;;;-13.99;82.39
63700;BME280;49845;47.130;142.766;2024-03-06T12:47:47;100645.22;;;-13.99;82.03
63700;BME280;49845;47.130;142.766;2024-03-06T12:50:18;100637.38;;;-14.12;81.57
63700;BME280;49845;47.130;142.766;2024-03-06T12:52:50;100642.06;;;-14.25;81.29
63700;BME280;49845;47.130;142.766;2024-03-06T12:55:21;100640.66;;;-14.51;80.77
63700;BME280;49845;47.130;142.766;2024-03-06T12:57:51;100649.00;;;-14.42;81.16
63700;BME280;49845;47.130;142.766;2024-03-06T13:00:22;100641.75;;;-14.39;81.33
63700;BME280;49845;47.130;142.766;2024-03-06T13:02:53;100637.19;;;-14.43;81.30